sensor_id;sensor_type;location;lat;lon;timestamp;temperature;humidity
13253;DHT22;6693;54.370;10.132;2022-09-03T00:00:54;21.20;1.00
13253;DHT22;6693;54.370;10.132;2022-09-03T00:02:57;21.10;1.00
13253;DHT22;6693;54.370;10.132;2022-09-03T00:05:03;21.10;1.00
13253;DHT22;6693;54.370;10.132;2022-09-03T00:07:07;21.10;1.00
13253;DHT22;6693;54.370;10.132;2022-09-03T00:09:13;21.20;1.00
13253;DHT22;6693;54.370;10.132;2022-09-03T00:11:17;21.20;1.00
13253;DHT22;6693;54.370;10.132;2022-09-03T00:13:22;21.20;1.00
13253;DHT22;6693;54.370;10.132;2022-09-03T00:15:25;21.20;1.00
13253;DHT22;6693;54.370;10.132;2022-09-03T00:17:28;21.30;1.00
13253;DHT22;6693;54.370;10.132;2022-09-03T00:19:31;21.20;1.00
13253;DHT22;6693;54.370;10.132;2022-09-03T00:21:35;21.20;1.00
13253;DHT22;6693;54.370;10.132;2022-09-03T00:23:39;21.20;1.00
13253;DHT22;6693;54.370;10.132;2022-09-03T00:25:42;21.20;1.00
13253;DHT22;6693;54.370;10.132;2022-09-03T00:27:46;21.10;1.00
13253;DHT22;6693;54.370;10.132;2022-09-03T00:29:52;21.30;1.00
13253;DHT22;6693;54.370;10.132;2022-09-03T00:31:55;21.30;1.00
13253;DHT22;6693;54.370;10.132;2022-09-03T00:33:59;21.30;1.00
13253;DHT22;6693;54.370;10.132;2022-09-03T00:36:04;21.30;1.00
13253;DHT22;6693;54.370;10.132;2022-09-03T00:38:08;21.20;1.00
13253;DHT22;6693;54.370;10.132;2022-09-03T00:40:12;21.20;1.00
13253;DHT22;6693;54.370;10.132;2022-09-03T00:42:24;21.20;1.00
13253;DHT22;6693;54.370;10.132;2022-09-03T00:44:34;21.40;1.00
13253;DHT22;6693;54.370;10.132;2022-09-03T00:46:40;21.30;1.00
13253;DHT22;6693;54.370;10.132;2022-09-03T00:48:55;21.40;1.00
13253;DHT22;6693;54.370;10.132;2022-09-03T00:51:04;21.40;1.00
13253;DHT22;6693;54.370;10.132;2022-09-03T00:53:09;21.40;1.00
13253;DHT22;6693;54.370;10.132;2022-09-03T00:55:15;21.40;1.00
13253;DHT22;6693;54.370;10.132;2022-09-03T00:57:22;21.40;1.00
13253;DHT22;6693;54.370;10.132;2022-09-03T00:59:30;21.40;1.00
13253;DHT22;6693;54.370;10.132;2022-09-03T01:01:35;21.60;1.00
13253;DHT22;6693;54.370;10.132;2022-09-03T01:03:39;21.50;1.00
13253;DHT22;6693;54.370;10.132;2022-09-03T01:05:51;21.50;1.00
13253;DHT22;6693;54.370;10.132;2022-09-03T01:08:04;21.50;1.00
13253;DHT22;6693;54.370;10.132;2022-09-03T01:10:11;21.50;1.00
13253;DHT22;6693;54.370;10.132;2022-09-03T01:12:16;21.50;1.00
13253;DHT22;6693;54.370;10.132;2022-09-03T01:14:21;21.50;1.00
13253;DHT22;6693;54.370;10.132;2022-09-03T01:16:27;21.40;1.00
13253;DHT22;6693;54.370;10.132;2022-09-03T01:18:33;21.40;1.00
13253;DHT22;6693;54.370;10.132;2022-09-03T01:20:44;21.40;1.00
13253;DHT22;6693;54.370;10.132;2022-09-03T01:25:11;21.40;1.00
13253;DHT22;6693;54.370;10.132;2022-09-03T01:27:16;21.40;1.00
13253;DHT22;6693;54.370;10.132;2022-09-03T01:29:22;20.20;1.00
13253;DHT22;6693;54.370;10.132;2022-09-03T01:31:28;21.50;1.00
13253;DHT22;6693;54.370;10.132;2022-09-03T01:33:32;21.40;1.00
13253;DHT22;6693;54.370;10.132;2022-09-03T01:35:40;21.40;1.00
13253;DHT22;6693;54.370;10.132;2022-09-03T01:37:44;21.30;1.00
13253;DHT22;6693;54.370;10.132;2022-09-03T01:39:51;21.30;1.00
13253;DHT22;6693;54.370;10.132;2022-09-03T01:41:56;21.30;1.00
13253;DHT22;6693;54.370;10.132;2022-09-03T01:44:18;21.20;1.00
13253;DHT22;6693;54.370;10.132;2022-09-03T01:46:24;21.20;1.00
13253;DHT22;6693;54.370;10.132;2022-09-03T01:48:30;21.20;1.00
13253;DHT22;6693;54.370;10.132;2022-09-03T01:50:35;21.30;1.00
13253;DHT22;6693;54.370;10.132;2022-09-03T01:55:22;21.10;1.00
13253;DHT22;6693;54.370;10.132;2022-09-03T01:57:30;21.20;1.00
13253;DHT22;6693;54.370;10.132;2022-09-03T01:59:36;21.20;1.00
13253;DHT22;6693;54.370;10.132;2022-09-03T02:01:42;21.30;1.00
13253;DHT22;6693;54.370;10.132;2022-09-03T02:03:46;21.30;1.00
13253;DHT22;6693;54.370;10.132;2022-09-03T02:05:49;21.30;1.00
13253;DHT22;6693;54.370;10.132;2022-09-03T02:07:55;21.20;1.00
13253;DHT22;6693;54.370;10.132;2022-09-03T02:09:57;21.20;1.00
13253;DHT22;6693;54.370;10.132;2022-09-03T02:12:03;21.30;1.00
13253;DHT22;6693;54.370;10.132;2022-09-03T02:14:07;21.30;1.00
13253;DHT22;6693;54.370;10.132;2022-09-03T02:16:09;21.30;1.00
13253;DHT22;6693;54.370;10.132;2022-09-03T02:18:14;21.20;1.00
13253;DHT22;6693;54.370;10.132;2022-09-03T02:20:18;21.30;1.00
13253;DHT22;6693;54.370;10.132;2022-09-03T02:22:20;21.40;1.00
13253;DHT22;6693;54.370;10.132;2022-09-03T02:24:21;21.20;1.00
13253;DHT22;6693;54.370;10.132;2022-09-03T02:26:23;21.20;1.00
13253;DHT22;6693;54.370;10.132;2022-09-03T02:28:25;21.20;1.00
13253;DHT22;6693;54.370;10.132;2022-09-03T02:30:27;21.20;1.00
13253;DHT22;6693;54.370;10.132;2022-09-03T02:32:28;21.20;1.00
13253;DHT22;6693;54.370;10.132;2022-09-03T02:34:31;21.20;1.00
13253;DHT22;6693;54.370;10.132;2022-09-03T02:36:34;21.10;1.00
13253;DHT22;6693;54.370;10.132;2022-09-03T02:38:36;21.10;1.00
13253;DHT22;6693;54.370;10.132;2022-09-03T02:40:38;21.10;1.00
13253;DHT22;6693;54.370;10.132;2022-09-03T02:42:39;21.20;1.00
13253;DHT22;6693;54.370;10.132;2022-09-03T02:44:41;21.20;1.00
13253;DHT22;6693;54.370;10.132;2022-09-03T02:46:45;21.20;1.00
13253;DHT22;6693;54.370;10.132;2022-09-03T02:48:48;21.10;1.00
13253;DHT22;6693;54.370;10.132;2022-09-03T02:50:51;21.10;1.00
13253;DHT22;6693;54.370;10.132;2022-09-03T02:52:53;21.20;1.00
13253;DHT22;6693;54.370;10.132;2022-09-03T02:54:54;21.20;1.00
13253;DHT22;6693;54.370;10.132;2022-09-03T02:56:56;21.20;1.00
13253;DHT22;6693;54.370;10.132;2022-09-03T02:58:57;21.20;1.00
13253;DHT22;6693;54.370;10.132;2022-09-03T03:00:59;21.10;1.00
13253;DHT22;6693;54.370;10.132;2022-09-03T03:03:01;21.10;1.00
13253;DHT22;6693;54.370;10.132;2022-09-03T03:05:03;21.00;1.00
13253;DHT22;6693;54.370;10.132;2022-09-03T03:07:06;21.10;1.00
13253;DHT22;6693;54.370;10.132;2022-09-03T03:09:08;21.10;1.00
13253;DHT22;6693;54.370;10.132;2022-09-03T03:11:09;21.10;1.00
13253;DHT22;6693;54.370;10.132;2022-09-03T03:13:11;21.00;1.00
13253;DHT22;6693;54.370;10.132;2022-09-03T03:15:12;21.10;1.00
13253;DHT22;6693;54.370;10.132;2022-09-03T03:17:14;21.10;1.00
13253;DHT22;6693;54.370;10.132;2022-09-03T03:19:16;21.10;1.00
13253;DHT22;6693;54.370;10.132;2022-09-03T03:21:18;20.90;1.00
13253;DHT22;6693;54.370;10.132;2022-09-03T03:23:21;21.00;1.00
13253;DHT22;6693;54.370;10.132;2022-09-03T03:25:22;20.90;1.00
13253;DHT22;6693;54.370;10.132;2022-09-03T03:27:24;20.80;1.00
13253;DHT22;6693;54.370;10.132;2022-09-03T03:29:27;20.80;1.00
13253;DHT22;6693;54.370;10.132;2022-09-03T03:31:30;20.80;1.00
13253;DHT22;6693;54.370;10.132;2022-09-03T03:33:31;20.80;1.00
13253;DHT22;6693;54.370;10.132;2022-09-03T03:35:33;20.80;1.00
13253;DHT22;6693;54.370;10.132;2022-09-03T03:37:35;20.80;1.00
13253;DHT22;6693;54.370;10.132;2022-09-03T03:39:38;20.70;1.00
13253;DHT22;6693;54.370;10.132;2022-09-03T03:41:39;20.80;1.00
13253;DHT22;6693;54.370;10.132;2022-09-03T03:43:41;20.80;1.00
13253;DHT22;6693;54.370;10.132;2022-09-03T03:45:42;20.70;1.00
13253;DHT22;6693;54.370;10.132;2022-09-03T03:47:44;20.70;1.00
13253;DHT22;6693;54.370;10.132;2022-09-03T03:49:45;20.80;1.80
13253;DHT22;6693;54.370;10.132;2022-09-03T03:51:47;20.80;4.10
13253;DHT22;6693;54.370;10.132;2022-09-03T03:53:48;20.80;2.60
13253;DHT22;6693;54.370;10.132;2022-09-03T03:55:55;20.80;9.90
13253;DHT22;6693;54.370;10.132;2022-09-03T03:57:57;20.80;19.50
13253;DHT22;6693;54.370;10.132;2022-09-03T03:59:59;20.80;19.10
13253;DHT22;6693;54.370;10.132;2022-09-03T04:02:00;20.70;30.40
13253;DHT22;6693;54.370;10.132;2022-09-03T04:04:02;20.80;30.00
13253;DHT22;6693;54.370;10.132;2022-09-03T04:06:05;20.80;34.10
13253;DHT22;6693;54.370;10.132;2022-09-03T04:08:07;20.70;24.50
13253;DHT22;6693;54.370;10.132;2022-09-03T04:10:09;20.70;34.70
13253;DHT22;6693;54.370;10.132;2022-09-03T04:12:12;20.70;38.30
13253;DHT22;6693;54.370;10.132;2022-09-03T04:14:13;20.50;46.00
13253;DHT22;6693;54.370;10.132;2022-09-03T04:16:16;20.50;53.30
13253;DHT22;6693;54.370;10.132;2022-09-03T04:18:18;20.60;49.50
13253;DHT22;6693;54.370;10.132;2022-09-03T04:20:19;20.60;46.70
13253;DHT22;6693;54.370;10.132;2022-09-03T04:22:21;20.50;52.50
13253;DHT22;6693;54.370;10.132;2022-09-03T04:24:22;20.60;53.50
13253;DHT22;6693;54.370;10.132;2022-09-03T04:26:24;20.50;50.40
13253;DHT22;6693;54.370;10.132;2022-09-03T04:28:28;20.50;46.20
13253;DHT22;6693;54.370;10.132;2022-09-03T04:30:30;20.60;47.20
13253;DHT22;6693;54.370;10.132;2022-09-03T04:32:31;20.50;48.90
13253;DHT22;6693;54.370;10.132;2022-09-03T04:34:51;20.50;52.20
13253;DHT22;6693;54.370;10.132;2022-09-03T04:36:52;20.50;49.20
13253;DHT22;6693;54.370;10.132;2022-09-03T04:38:54;20.40;57.10
13253;DHT22;6693;54.370;10.132;2022-09-03T04:40:56;20.50;57.30
13253;DHT22;6693;54.370;10.132;2022-09-03T04:42:58;20.50;66.00
13253;DHT22;6693;54.370;10.132;2022-09-03T04:45:01;20.40;66.10
13253;DHT22;6693;54.370;10.132;2022-09-03T04:47:03;20.30;61.70
13253;DHT22;6693;54.370;10.132;2022-09-03T04:49:05;20.30;69.50
13253;DHT22;6693;54.370;10.132;2022-09-03T04:51:10;20.40;71.30
13253;DHT22;6693;54.370;10.132;2022-09-03T04:53:12;20.40;79.10
13253;DHT22;6693;54.370;10.132;2022-09-03T04:55:14;20.50;73.40
13253;DHT22;6693;54.370;10.132;2022-09-03T04:57:16;20.40;70.20
13253;DHT22;6693;54.370;10.132;2022-09-03T04:59:17;20.40;76.10
13253;DHT22;6693;54.370;10.132;2022-09-03T05:01:21;20.40;93.70
13253;DHT22;6693;54.370;10.132;2022-09-03T05:03:22;20.50;91.00
13253;DHT22;6693;54.370;10.132;2022-09-03T05:05:24;20.50;92.70
13253;DHT22;6693;54.370;10.132;2022-09-03T05:07:25;20.70;90.70
13253;DHT22;6693;54.370;10.132;2022-09-03T05:09:27;20.60;76.80
13253;DHT22;6693;54.370;10.132;2022-09-03T05:11:29;20.50;86.90
13253;DHT22;6693;54.370;10.132;2022-09-03T05:13:30;20.50;94.40
13253;DHT22;6693;54.370;10.132;2022-09-03T05:15:32;20.50;80.30
13253;DHT22;6693;54.370;10.132;2022-09-03T05:17:36;20.50;75.70
13253;DHT22;6693;54.370;10.132;2022-09-03T05:19:38;20.50;61.10
13253;DHT22;6693;54.370;10.132;2022-09-03T05:21:39;20.40;44.50
13253;DHT22;6693;54.370;10.132;2022-09-03T05:23:43;20.30;57.10
13253;DHT22;6693;54.370;10.132;2022-09-03T05:25:53;20.50;74.20
13253;DHT22;6693;54.370;10.132;2022-09-03T05:27:55;19.10;79.10
13253;DHT22;6693;54.370;10.132;2022-09-03T05:29:57;20.60;65.70
13253;DHT22;6693;54.370;10.132;2022-09-03T05:31:59;20.70;61.00
13253;DHT22;6693;54.370;10.132;2022-09-03T05:34:02;20.80;49.70
13253;DHT22;6693;54.370;10.132;2022-09-03T05:36:05;20.50;37.00
13253;DHT22;6693;54.370;10.132;2022-09-03T05:38:07;20.60;27.70
13253;DHT22;6693;54.370;10.132;2022-09-03T05:40:09;20.60;30.40
13253;DHT22;6693;54.370;10.132;2022-09-03T05:42:10;20.50;30.30
13253;DHT22;6693;54.370;10.132;2022-09-03T05:44:12;20.50;37.40
13253;DHT22;6693;54.370;10.132;2022-09-03T05:46:14;20.60;47.40
13253;DHT22;6693;54.370;10.132;2022-09-03T05:48:17;20.70;52.60
13253;DHT22;6693;54.370;10.132;2022-09-03T05:50:20;20.70;41.10
13253;DHT22;6693;54.370;10.132;2022-09-03T05:52:21;20.70;35.70
13253;DHT22;6693;54.370;10.132;2022-09-03T05:54:23;20.70;6.40
13253;DHT22;6693;54.370;10.132;2022-09-03T05:56:26;20.70;13.80
13253;DHT22;6693;54.370;10.132;2022-09-03T05:58:29;20.60;12.30
13253;DHT22;6693;54.370;10.132;2022-09-03T06:00:31;19.80;5.60
13253;DHT22;6693;54.370;10.132;2022-09-03T06:02:32;20.70;22.50
13253;DHT22;6693;54.370;10.132;2022-09-03T06:04:34;20.70;22.60
13253;DHT22;6693;54.370;10.132;2022-09-03T06:06:37;20.70;20.10
13253;DHT22;6693;54.370;10.132;2022-09-03T06:08:39;20.70;1.00
13253;DHT22;6693;54.370;10.132;2022-09-03T06:10:40;20.70;3.10
13253;DHT22;6693;54.370;10.132;2022-09-03T06:12:42;20.60;1.30
13253;DHT22;6693;54.370;10.132;2022-09-03T06:14:48;20.60;1.00
13253;DHT22;6693;54.370;10.132;2022-09-03T06:16:50;20.70;1.00
13253;DHT22;6693;54.370;10.132;2022-09-03T06:18:52;20.70;1.00
13253;DHT22;6693;54.370;10.132;2022-09-03T06:20:54;20.80;1.00
13253;DHT22;6693;54.370;10.132;2022-09-03T06:22:57;20.80;1.00
13253;DHT22;6693;54.370;10.132;2022-09-03T06:24:58;20.80;1.00
13253;DHT22;6693;54.370;10.132;2022-09-03T06:27:00;20.80;1.00
13253;DHT22;6693;54.370;10.132;2022-09-03T06:29:01;21.00;1.00
13253;DHT22;6693;54.370;10.132;2022-09-03T06:31:03;20.90;1.00
13253;DHT22;6693;54.370;10.132;2022-09-03T06:33:06;21.00;1.00
13253;DHT22;6693;54.370;10.132;2022-09-03T06:35:08;21.00;1.00
13253;DHT22;6693;54.370;10.132;2022-09-03T06:37:18;21.00;1.00
13253;DHT22;6693;54.370;10.132;2022-09-03T06:39:21;21.00;1.00
13253;DHT22;6693;54.370;10.132;2022-09-03T06:41:25;21.10;1.00
13253;DHT22;6693;54.370;10.132;2022-09-03T06:43:27;21.10;1.00
13253;DHT22;6693;54.370;10.132;2022-09-03T06:45:29;21.10;1.00
13253;DHT22;6693;54.370;10.132;2022-09-03T06:47:31;21.20;99.90
13253;DHT22;6693;54.370;10.132;2022-09-03T06:49:33;21.20;1.00
13253;DHT22;6693;54.370;10.132;2022-09-03T06:51:34;21.30;1.00
13253;DHT22;6693;54.370;10.132;2022-09-03T06:53:37;21.30;99.90
13253;DHT22;6693;54.370;10.132;2022-09-03T06:55:40;21.40;99.90
13253;DHT22;6693;54.370;10.132;2022-09-03T06:57:42;21.60;99.90
13253;DHT22;6693;54.370;10.132;2022-09-03T06:59:43;21.50;99.90
13253;DHT22;6693;54.370;10.132;2022-09-03T07:01:45;21.50;99.90
13253;DHT22;6693;54.370;10.132;2022-09-03T07:03:47;21.50;99.90
13253;DHT22;6693;54.370;10.132;2022-09-03T07:05:49;21.60;1.00
13253;DHT22;6693;54.370;10.132;2022-09-03T07:07:50;21.70;1.00
13253;DHT22;6693;54.370;10.132;2022-09-03T07:09:52;21.60;1.00
13253;DHT22;6693;54.370;10.132;2022-09-03T07:11:55;21.50;1.00
13253;DHT22;6693;54.370;10.132;2022-09-03T07:13:57;21.50;1.00
13253;DHT22;6693;54.370;10.132;2022-09-03T07:15:59;21.60;99.90
13253;DHT22;6693;54.370;10.132;2022-09-03T07:18:01;21.70;1.00
13253;DHT22;6693;54.370;10.132;2022-09-03T07:20:02;21.80;99.90
13253;DHT22;6693;54.370;10.132;2022-09-03T07:22:04;21.80;99.90
13253;DHT22;6693;54.370;10.132;2022-09-03T07:24:07;21.80;99.90
13253;DHT22;6693;54.370;10.132;2022-09-03T07:26:11;21.90;1.00
13253;DHT22;6693;54.370;10.132;2022-09-03T07:28:14;22.00;1.00
13253;DHT22;6693;54.370;10.132;2022-09-03T07:30:16;22.00;36.90
13253;DHT22;6693;54.370;10.132;2022-09-03T07:32:18;22.10;1.00
13253;DHT22;6693;54.370;10.132;2022-09-03T07:34:20;22.30;1.00
13253;DHT22;6693;54.370;10.132;2022-09-03T07:36:26;22.40;99.90
13253;DHT22;6693;54.370;10.132;2022-09-03T07:38:27;22.60;99.90
13253;DHT22;6693;54.370;10.132;2022-09-03T07:40:29;22.90;1.00
13253;DHT22;6693;54.370;10.132;2022-09-03T07:42:32;23.00;1.00
13253;DHT22;6693;54.370;10.132;2022-09-03T07:44:36;23.00;1.00
13253;DHT22;6693;54.370;10.132;2022-09-03T07:46:38;23.00;1.00
13253;DHT22;6693;54.370;10.132;2022-09-03T07:48:39;22.90;1.00
13253;DHT22;6693;54.370;10.132;2022-09-03T07:50:42;23.00;1.00
13253;DHT22;6693;54.370;10.132;2022-09-03T07:52:44;23.30;1.00
13253;DHT22;6693;54.370;10.132;2022-09-03T07:54:46;23.40;1.00
13253;DHT22;6693;54.370;10.132;2022-09-03T07:56:48;23.60;99.90
13253;DHT22;6693;54.370;10.132;2022-09-03T07:58:49;23.70;99.90
13253;DHT22;6693;54.370;10.132;2022-09-03T08:00:52;23.80;99.90
13253;DHT22;6693;54.370;10.132;2022-09-03T08:02:56;24.00;99.90
13253;DHT22;6693;54.370;10.132;2022-09-03T08:05:00;24.00;99.90
13253;DHT22;6693;54.370;10.132;2022-09-03T08:07:02;24.10;1.00
13253;DHT22;6693;54.370;10.132;2022-09-03T08:09:05;24.10;1.00
13253;DHT22;6693;54.370;10.132;2022-09-03T08:11:08;24.10;1.00
13253;DHT22;6693;54.370;10.132;2022-09-03T08:13:10;24.10;1.00
13253;DHT22;6693;54.370;10.132;2022-09-03T08:15:11;24.30;1.00
13253;DHT22;6693;54.370;10.132;2022-09-03T08:17:14;24.50;1.00
13253;DHT22;6693;54.370;10.132;2022-09-03T08:19:16;24.50;1.00
13253;DHT22;6693;54.370;10.132;2022-09-03T08:21:18;24.60;1.00
13253;DHT22;6693;54.370;10.132;2022-09-03T08:23:20;24.90;1.00
13253;DHT22;6693;54.370;10.132;2022-09-03T08:25:21;24.80;1.00
13253;DHT22;6693;54.370;10.132;2022-09-03T08:27:23;25.10;1.00
13253;DHT22;6693;54.370;10.132;2022-09-03T08:29:25;25.30;1.00
13253;DHT22;6693;54.370;10.132;2022-09-03T08:31:28;25.30;1.00
13253;DHT22;6693;54.370;10.132;2022-09-03T08:33:31;25.30;1.00
13253;DHT22;6693;54.370;10.132;2022-09-03T08:35:38;25.20;1.00
13253;DHT22;6693;54.370;10.132;2022-09-03T08:37:40;25.10;1.00
13253;DHT22;6693;54.370;10.132;2022-09-03T08:39:41;25.30;1.00
13253;DHT22;6693;54.370;10.132;2022-09-03T08:41:52;25.30;1.00
13253;DHT22;6693;54.370;10.132;2022-09-03T08:44:05;25.30;99.90
13253;DHT22;6693;54.370;10.132;2022-09-03T08:46:10;25.20;99.90
13253;DHT22;6693;54.370;10.132;2022-09-03T08:48:12;25.20;99.90
13253;DHT22;6693;54.370;10.132;2022-09-03T08:50:18;25.40;99.90
13253;DHT22;6693;54.370;10.132;2022-09-03T08:52:24;25.60;99.90
13253;DHT22;6693;54.370;10.132;2022-09-03T08:54:27;25.80;99.90
13253;DHT22;6693;54.370;10.132;2022-09-03T08:56:30;26.00;99.90
13253;DHT22;6693;54.370;10.132;2022-09-03T08:58:33;26.30;99.90
13253;DHT22;6693;54.370;10.132;2022-09-03T09:00:39;26.50;99.90
13253;DHT22;6693;54.370;10.132;2022-09-03T09:02:46;26.60;99.90
13253;DHT22;6693;54.370;10.132;2022-09-03T09:04:52;26.60;99.90
13253;DHT22;6693;54.370;10.132;2022-09-03T09:06:58;27.00;99.90
13253;DHT22;6693;54.370;10.132;2022-09-03T09:09:08;27.20;99.90
13253;DHT22;6693;54.370;10.132;2022-09-03T09:11:14;27.10;99.90
13253;DHT22;6693;54.370;10.132;2022-09-03T09:13:19;27.00;99.90
13253;DHT22;6693;54.370;10.132;2022-09-03T09:15:26;27.10;99.90
13253;DHT22;6693;54.370;10.132;2022-09-03T09:17:31;27.10;99.90
13253;DHT22;6693;54.370;10.132;2022-09-03T09:19:38;27.20;99.90
13253;DHT22;6693;54.370;10.132;2022-09-03T09:21:43;26.90;99.90
13253;DHT22;6693;54.370;10.132;2022-09-03T09:23:48;26.80;99.90
13253;DHT22;6693;54.370;10.132;2022-09-03T09:25:50;26.80;92.40
13253;DHT22;6693;54.370;10.132;2022-09-03T09:27:57;26.70;66.50
13253;DHT22;6693;54.370;10.132;2022-09-03T09:30:00;26.90;39.00
13253;DHT22;6693;54.370;10.132;2022-09-03T09:32:06;26.60;17.30
13253;DHT22;6693;54.370;10.132;2022-09-03T09:34:08;26.80;21.50
13253;DHT22;6693;54.370;10.132;2022-09-03T09:36:11;26.70;9.10
13253;DHT22;6693;54.370;10.132;2022-09-03T09:38:14;26.60;4.90
13253;DHT22;6693;54.370;10.132;2022-09-03T09:40:28;26.00;1.00
13253;DHT22;6693;54.370;10.132;2022-09-03T09:42:32;25.80;1.00
13253;DHT22;6693;54.370;10.132;2022-09-03T09:44:33;25.50;1.00
13253;DHT22;6693;54.370;10.132;2022-09-03T09:46:36;25.80;1.00
13253;DHT22;6693;54.370;10.132;2022-09-03T09:48:40;26.00;1.00
13253;DHT22;6693;54.370;10.132;2022-09-03T09:50:45;25.90;1.00
13253;DHT22;6693;54.370;10.132;2022-09-03T09:52:47;26.40;1.00
13253;DHT22;6693;54.370;10.132;2022-09-03T09:54:48;26.90;1.00
13253;DHT22;6693;54.370;10.132;2022-09-03T09:56:58;26.90;1.00
13253;DHT22;6693;54.370;10.132;2022-09-03T09:59:03;27.00;1.00
13253;DHT22;6693;54.370;10.132;2022-09-03T10:01:08;27.00;1.00
13253;DHT22;6693;54.370;10.132;2022-09-03T10:03:12;27.00;1.00
13253;DHT22;6693;54.370;10.132;2022-09-03T10:05:14;27.00;1.00
13253;DHT22;6693;54.370;10.132;2022-09-03T10:07:21;27.20;1.00
13253;DHT22;6693;54.370;10.132;2022-09-03T10:09:23;27.20;1.00
13253;DHT22;6693;54.370;10.132;2022-09-03T10:11:25;27.30;1.00
13253;DHT22;6693;54.370;10.132;2022-09-03T10:13:29;27.60;1.00
13253;DHT22;6693;54.370;10.132;2022-09-03T10:15:35;27.80;1.00
13253;DHT22;6693;54.370;10.132;2022-09-03T10:17:42;27.40;1.00
13253;DHT22;6693;54.370;10.132;2022-09-03T10:19:57;27.10;1.00
13253;DHT22;6693;54.370;10.132;2022-09-03T10:22:18;27.20;1.00
13253;DHT22;6693;54.370;10.132;2022-09-03T10:24:25;27.10;1.00
13253;DHT22;6693;54.370;10.132;2022-09-03T10:26:29;26.80;1.00
13253;DHT22;6693;54.370;10.132;2022-09-03T10:28:34;27.00;1.00
13253;DHT22;6693;54.370;10.132;2022-09-03T10:30:46;27.20;1.00
13253;DHT22;6693;54.370;10.132;2022-09-03T10:32:52;27.40;1.00
13253;DHT22;6693;54.370;10.132;2022-09-03T10:35:02;27.90;1.00
13253;DHT22;6693;54.370;10.132;2022-09-03T10:37:12;28.10;1.00
13253;DHT22;6693;54.370;10.132;2022-09-03T10:39:18;28.00;1.00
13253;DHT22;6693;54.370;10.132;2022-09-03T10:41:25;27.90;1.00
13253;DHT22;6693;54.370;10.132;2022-09-03T10:43:37;27.60;1.00
13253;DHT22;6693;54.370;10.132;2022-09-03T10:45:44;27.30;1.00
13253;DHT22;6693;54.370;10.132;2022-09-03T10:48:00;27.60;1.00
13253;DHT22;6693;54.370;10.132;2022-09-03T10:50:07;27.90;1.00
13253;DHT22;6693;54.370;10.132;2022-09-03T10:52:18;28.30;1.00
13253;DHT22;6693;54.370;10.132;2022-09-03T10:56:53;27.20;1.00
13253;DHT22;6693;54.370;10.132;2022-09-03T10:59:05;27.10;1.00
13253;DHT22;6693;54.370;10.132;2022-09-03T11:01:09;27.10;1.00
13253;DHT22;6693;54.370;10.132;2022-09-03T11:03:27;27.30;1.00
13253;DHT22;6693;54.370;10.132;2022-09-03T11:05:33;27.30;1.00
13253;DHT22;6693;54.370;10.132;2022-09-03T11:09:56;27.60;1.00
13253;DHT22;6693;54.370;10.132;2022-09-03T11:11:59;27.60;1.00
13253;DHT22;6693;54.370;10.132;2022-09-03T11:14:07;27.60;1.00
13253;DHT22;6693;54.370;10.132;2022-09-03T11:16:10;27.20;1.00
13253;DHT22;6693;54.370;10.132;2022-09-03T11:18:14;27.10;1.00
13253;DHT22;6693;54.370;10.132;2022-09-03T11:20:18;26.90;1.00
13253;DHT22;6693;54.370;10.132;2022-09-03T11:22:20;27.30;1.00
13253;DHT22;6693;54.370;10.132;2022-09-03T11:24:23;27.60;1.00
13253;DHT22;6693;54.370;10.132;2022-09-03T11:26:26;27.80;1.00
13253;DHT22;6693;54.370;10.132;2022-09-03T11:28:35;27.80;1.00
13253;DHT22;6693;54.370;10.132;2022-09-03T11:30:46;27.90;1.00
13253;DHT22;6693;54.370;10.132;2022-09-03T11:32:50;27.80;1.00
13253;DHT22;6693;54.370;10.132;2022-09-03T11:34:53;27.90;1.00
13253;DHT22;6693;54.370;10.132;2022-09-03T11:37:15;28.00;1.00
13253;DHT22;6693;54.370;10.132;2022-09-03T11:39:18;27.80;1.00
13253;DHT22;6693;54.370;10.132;2022-09-03T11:41:25;27.80;1.00
13253;DHT22;6693;54.370;10.132;2022-09-03T11:43:27;27.60;1.00
13253;DHT22;6693;54.370;10.132;2022-09-03T11:45:33;27.20;1.00
13253;DHT22;6693;54.370;10.132;2022-09-03T11:47:38;27.20;1.00
13253;DHT22;6693;54.370;10.132;2022-09-03T11:49:43;27.40;1.00
13253;DHT22;6693;54.370;10.132;2022-09-03T11:51:54;27.30;1.00
13253;DHT22;6693;54.370;10.132;2022-09-03T11:53:57;27.20;1.00
13253;DHT22;6693;54.370;10.132;2022-09-03T11:55:59;27.30;1.00
13253;DHT22;6693;54.370;10.132;2022-09-03T11:58:09;27.20;1.00
13253;DHT22;6693;54.370;10.132;2022-09-03T12:00:12;27.00;1.00
13253;DHT22;6693;54.370;10.132;2022-09-03T12:02:25;26.70;1.00
13253;DHT22;6693;54.370;10.132;2022-09-03T12:04:31;26.60;1.00
13253;DHT22;6693;54.370;10.132;2022-09-03T12:06:39;26.70;1.00
13253;DHT22;6693;54.370;10.132;2022-09-03T12:08:51;26.90;1.00
13253;DHT22;6693;54.370;10.132;2022-09-03T12:10:58;26.70;1.00
13253;DHT22;6693;54.370;10.132;2022-09-03T12:13:12;27.20;1.00
13253;DHT22;6693;54.370;10.132;2022-09-03T12:15:17;27.30;1.00
13253;DHT22;6693;54.370;10.132;2022-09-03T12:17:24;27.20;1.00
13253;DHT22;6693;54.370;10.132;2022-09-03T12:19:31;27.20;1.00
13253;DHT22;6693;54.370;10.132;2022-09-03T12:21:36;27.10;1.00
13253;DHT22;6693;54.370;10.132;2022-09-03T12:23:41;27.20;1.00
13253;DHT22;6693;54.370;10.132;2022-09-03T12:25:44;27.10;1.00
13253;DHT22;6693;54.370;10.132;2022-09-03T12:27:47;26.90;1.00
13253;DHT22;6693;54.370;10.132;2022-09-03T12:29:50;26.90;1.00
13253;DHT22;6693;54.370;10.132;2022-09-03T12:32:05;27.10;1.00
13253;DHT22;6693;54.370;10.132;2022-09-03T12:34:09;26.90;1.00
13253;DHT22;6693;54.370;10.132;2022-09-03T12:36:12;26.90;1.00
13253;DHT22;6693;54.370;10.132;2022-09-03T12:38:13;27.40;1.00
13253;DHT22;6693;54.370;10.132;2022-09-03T12:40:23;27.50;1.00
13253;DHT22;6693;54.370;10.132;2022-09-03T12:42:26;27.60;1.00
13253;DHT22;6693;54.370;10.132;2022-09-03T12:44:29;27.80;1.00
13253;DHT22;6693;54.370;10.132;2022-09-03T12:46:31;27.90;1.00
13253;DHT22;6693;54.370;10.132;2022-09-03T12:48:34;28.10;1.00
13253;DHT22;6693;54.370;10.132;2022-09-03T12:50:35;28.10;1.00
13253;DHT22;6693;54.370;10.132;2022-09-03T12:52:38;28.00;1.00
13253;DHT22;6693;54.370;10.132;2022-09-03T12:54:43;28.10;1.00
13253;DHT22;6693;54.370;10.132;2022-09-03T12:56:48;28.60;1.00
13253;DHT22;6693;54.370;10.132;2022-09-03T12:58:54;28.70;1.00
13253;DHT22;6693;54.370;10.132;2022-09-03T13:00:58;28.80;1.00
13253;DHT22;6693;54.370;10.132;2022-09-03T13:03:01;28.90;1.00
13253;DHT22;6693;54.370;10.132;2022-09-03T13:05:04;28.70;1.00
13253;DHT22;6693;54.370;10.132;2022-09-03T13:07:07;28.30;1.00
13253;DHT22;6693;54.370;10.132;2022-09-03T13:09:13;28.00;1.00
13253;DHT22;6693;54.370;10.132;2022-09-03T13:11:15;27.90;1.00
13253;DHT22;6693;54.370;10.132;2022-09-03T13:13:19;27.90;1.00
13253;DHT22;6693;54.370;10.132;2022-09-03T13:15:22;27.70;1.00
13253;DHT22;6693;54.370;10.132;2022-09-03T13:17:26;27.50;1.00
13253;DHT22;6693;54.370;10.132;2022-09-03T13:19:35;27.20;1.00
13253;DHT22;6693;54.370;10.132;2022-09-03T13:21:40;27.30;1.00
13253;DHT22;6693;54.370;10.132;2022-09-03T13:26:08;27.40;1.00